Aérodrome :
LOGIN :

S'inscrire | Disclaimer

   EN    FR    IT 

 










Légende :    VFR   VFR Marginal   IFR   IFR Intensif   IFR Très Intensif
Visi : 
Plafond : 
>= 8 km
>= 3000ft
5 à 8 km
1000 à 3000 ft
1500m à 5 km
500 à 1000 ft
800 à 1500m
200 à 500 ft
< 800m
< 200 ft
Symboles :   Orages  Brouillard  Fortes neiges  Fortes précipitations  Vent > 20 kt
SIGMETs :   Divers  Orages  Givrage  Turbulence  Onde Orograph.  Cendres Volcan.







- Altitude de l'aérodrome : 1910 ft
- Code IATA : RDZ
- Voir les cartes d'approche


LFCR - Rodez

DERNIER METAR :
  • 100930Z AUTO 28012KT 9999 BKN010 BKN037 06/04 Q1031 TEMPO 3000 -RADZ BECMG BKN020

METARs EXPIRÉS :
  • 100900Z AUTO 29014KT 9999 BKN010 OVC036 05/04 Q1031 TEMPO 3000 -RADZ
  • 100830Z AUTO 29012KT 9999 BKN010 OVC037 05/04 Q1030 TEMPO 3000 -RADZ
  • 100800Z AUTO 29010KT 9999 BKN011 BKN042 05/04 Q1030 TEMPO 3000 -RADZ BKN007
  • 100730Z AUTO 28014KT 9999 BKN010 05/04 Q1030 TEMPO 3000 -RADZ OVC003
  • 100700Z AUTO 29014KT 9999 OVC010 05/04 Q1029 TEMPO 3000 BR OVC003

TAF TAF LFCR
Valide du 10 à 06h jusqu'au 11 à 06h UTC


100500Z 1006/1106 29012KT 9999 BKN013
PROB40
TEMPO 1006/1011 3000 -RADZ BKN007
PROB30
TEMPO 1006/1009 3000 BR OVC003
BECMG 1011/1013 BKN020
BECMG 1018/1020 34010KT CAVOK
BECMG 1022/1024 VRB02KT 3000 BR
TEMPO 1100/1106 0300 FG VV///
Pas de NOTAMs connus pour ce terrain.
1 SIGMET publié pour la FIR Bordeaux (LFBB) :
 
Turbulence forte
LFBB SIGMET 2 VALID 100600/101000 LFPW
LFBB BORDEAUX FIR/UIR SEV TURB FCST SE OF LINE N4345 E00245 - N4230 E00130 SFC/FL070 STNR NC=



MET'MAP, la Météo Aéronautique d'un coup d'oeil ! - Copyright ORBIFLY Décembre 2007 - Disclaimer

ORBIFLY MET'MAP TEAM :

Programmation & Développement : Alexandra Zaïnal
Conception & Développement : Baudouin d'Aumeries
Co-Programmation & Développement : Marc-Olivier Méhu
Soutien technique & logistique : Manuel Goepfert

Contact : metmap@orbifly.com




SOURCES & CREDITS :

   NOAA